Time;durP1;ratioP1;P1;durP2;ratioP2;P2;SDS_P1;SDS_P2;PMS_P1;PMS_P2;Temp;Humidity;BMP_temperature;BMP_pressure;BME280_temperature;BME280_humidity;BME280_pressure;Samples;Min_cycle;Max_cycle;Signal;HPM_P1;HPM_P2
2022/01/04 00:01:12;;;;;;;1.73;1.13;;;14.20;60.80;;;;;;5096658;28;20572;-48
2022/01/04 00:03:37;;;;;;;1.53;1.10;;;14.50;60.40;;;;;;5084442;28;20195;-49
2022/01/04 00:06:03;;;;;;;1.00;0.77;;;14.50;60.10;;;;;;5090135;28;20216;-48
2022/01/04 00:08:29;;;;;;;2.00;1.10;;;14.40;60.30;;;;;;5090457;28;20205;-49
2022/01/04 00:11:05;;;;;;;1.60;1.00;;;14.50;60.60;;;;;;5093686;28;20610;-49
2022/01/04 00:13:31;;;;;;;0.90;0.87;;;14.50;60.80;;;;;;5084142;28;20249;-49
2022/01/04 00:15:57;;;;;;;1.57;1.13;;;14.40;60.90;;;;;;5084687;28;20941;-48
2022/01/04 00:18:23;;;;;;;8.70;2.33;;;14.10;61.70;;;;;;5093270;28;20195;-52
2022/01/04 00:20:50;;;;;;;1.13;1.03;;;14.10;62.40;;;;;;5086595;28;20613;-50
2022/01/04 00:23:16;;;;;;;1.27;0.80;;;14.20;62.40;;;;;;5084875;28;20532;-49
2022/01/04 00:25:42;;;;;;;1.20;1.10;;;14.20;62.10;;;;;;5086991;28;20436;-49
2022/01/04 00:28:08;;;;;;;1.30;1.10;;;14.30;62.00;;;;;;5098484;28;20453;-49
2022/01/04 00:30:38;;;;;;;2.20;1.10;;;14.20;62.30;;;;;;5106444;28;20961;-49
2022/01/04 00:33:05;;;;;;;1.30;0.90;;;14.30;62.40;;;;;;5096101;28;20452;-48
2022/01/04 00:35:32;;;;;;;3.10;1.20;;;14.40;62.30;;;;;;5087030;28;20449;-51
2022/01/04 00:37:58;;;;;;;2.20;0.90;;;14.30;62.40;;;;;;5088432;28;20437;-51
2022/01/04 00:40:24;;;;;;;1.53;1.00;;;14.60;62.30;;;;;;5080166;28;20453;-50
2022/01/04 00:42:51;;;;;;;1.37;1.00;;;14.70;61.80;;;;;;5094081;28;20804;-49
2022/01/04 00:45:17;;;;;;;2.00;1.10;;;14.60;61.90;;;;;;5089815;28;20472;-49
2022/01/04 00:50:21;;;;;;;2.00;1.03;;;14.70;61.60;;;;;;5095906;28;20786;-48
2022/01/04 00:52:47;;;;;;;1.03;0.93;;;14.70;61.70;;;;;;5088665;28;22036;-49
2022/01/04 00:55:12;;;;;;;1.33;1.00;;;14.70;61.70;;;;;;5087988;28;20437;-50
2022/01/04 00:57:38;;;;;;;0.80;0.80;;;14.80;61.60;;;;;;5091904;28;20284;-49
2022/01/04 01:00:05;;;;;;;0.97;0.97;;;14.90;61.40;;;;;;5091883;28;20195;-49
2022/01/04 01:02:31;;;;;;;1.27;0.90;;;14.70;61.80;;;;;;5099915;28;20221;-51
2022/01/04 01:04:56;;;;;;;3.80;1.30;;;14.80;61.70;;;;;;5090634;28;20917;-49
2022/01/04 01:07:22;;;;;;;1.27;1.17;;;14.90;61.40;;;;;;5089604;28;20254;-49
2022/01/04 01:10:03;;;;;;;1.70;1.23;;;15.10;60.70;;;;;;5097518;28;20267;-49
2022/01/04 01:12:29;;;;;;;1.00;0.83;;;15.20;60.40;;;;;;5086400;28;20627;-49
2022/01/04 01:14:55;;;;;;;1.07;0.97;;;15.30;60.00;;;;;;5089904;28;20455;-49
2022/01/04 01:17:20;;;;;;;1.00;0.90;;;15.20;60.10;;;;;;5090713;28;20202;-49
2022/01/04 01:19:46;;;;;;;1.80;1.20;;;15.30;60.10;;;;;;5093371;28;20280;-50
2022/01/04 01:22:11;;;;;;;1.30;1.20;;;15.20;60.10;;;;;;5081960;28;20643;-49
2022/01/04 01:24:37;;;;;;;1.30;1.13;;;15.20;60.50;;;;;;5088224;28;20722;-49
2022/01/04 01:27:03;;;;;;;2.20;1.10;;;15.20;60.70;;;;;;5096210;28;20230;-49
2022/01/04 01:29:28;;;;;;;3.60;1.37;;;15.20;60.50;;;;;;5088233;28;20650;-52
2022/01/04 01:31:54;;;;;;;1.27;1.03;;;15.30;60.30;;;;;;5096532;28;20195;-51
2022/01/04 01:34:20;;;;;;;1.43;1.10;;;15.40;60.20;;;;;;5094942;28;20196;-49
2022/01/04 01:36:45;;;;;;;2.50;0.90;;;15.20;60.40;;;;;;5090126;28;20195;-49
2022/01/04 01:39:12;;;;;;;1.03;1.00;;;15.30;60.50;;;;;;5087812;28;20274;-49
2022/01/04 01:41:38;;;;;;;1.80;1.30;;;15.50;60.20;;;;;;5092022;28;20194;-50
2022/01/04 01:44:04;;;;;;;1.00;0.90;;;15.30;60.30;;;;;;5107066;28;20486;-49
2022/01/04 01:46:30;;;;;;;1.10;1.00;;;15.40;60.50;;;;;;5086868;28;20484;-50
2022/01/04 01:48:55;;;;;;;3.80;1.27;;;15.40;60.40;;;;;;5101703;28;20447;-52
2022/01/04 01:51:23;;;;;;;2.30;1.00;;;15.50;60.90;;;;;;5099303;28;20252;-48
2022/01/04 01:53:49;;;;;;;1.53;0.90;;;15.60;60.30;;;;;;5098240;28;20206;-49
2022/01/04 01:56:14;;;;;;;2.27;1.37;;;15.50;60.40;;;;;;5096004;28;20472;-51
2022/01/04 01:58:40;;;;;;;1.80;1.37;;;15.60;60.40;;;;;;5095237;28;20190;-49
2022/01/04 02:01:05;;;;;;;2.63;1.40;;;15.50;60.30;;;;;;5090392;28;20267;-49
2022/01/04 02:03:31;;;;;;;2.73;1.30;;;15.50;60.40;;;;;;5093159;28;20628;-49
2022/01/04 02:05:57;;;;;;;1.50;1.40;;;15.60;60.40;;;;;;5090433;28;20215;-49
2022/01/04 02:08:26;;;;;;;3.33;1.33;;;15.40;60.50;;;;;;5087302;28;20631;-50
2022/01/04 02:11:06;;;;;;;3.10;1.30;;;15.40;60.90;;;;;;5088913;28;20428;-51
2022/01/04 02:13:34;;;;;;;1.77;1.30;;;15.40;61.00;;;;;;5095498;28;20441;-49
2022/01/04 02:16:02;;;;;;;1.53;1.37;;;15.40;60.70;;;;;;5099946;28;20418;-48
2022/01/04 02:18:28;;;;;;;1.70;1.43;;;15.10;61.30;;;;;;5089546;28;20825;-48
2022/01/04 02:20:54;;;;;;;1.20;1.07;;;15.40;61.10;;;;;;5086120;28;20478;-49
2022/01/04 02:23:19;;;;;;;1.40;1.30;;;15.40;60.70;;;;;;5090922;28;20233;-49
2022/01/04 02:25:46;;;;;;;2.10;1.47;;;15.40;60.70;;;;;;5093384;28;20190;-49
2022/01/04 02:28:12;;;;;;;1.67;1.40;;;15.50;60.60;;;;;;5088979;28;20553;-49
2022/01/04 02:30:38;;;;;;;2.37;1.70;;;15.60;60.30;;;;;;5083312;28;20464;-49
2022/01/04 02:33:04;;;;;;;1.67;1.20;;;15.60;60.00;;;;;;5089401;28;20437;-49
2022/01/04 02:35:31;;;;;;;1.83;1.37;;;15.50;60.10;;;;;;5083319;28;20276;-49
2022/01/04 02:37:59;;;;;;;2.13;1.40;;;15.60;60.20;;;;;;5094933;28;20245;-49
2022/01/04 02:40:25;;;;;;;1.60;1.30;;;15.70;59.80;;;;;;5092596;28;20432;-49
2022/01/04 02:42:51;;;;;;;1.30;1.20;;;15.60;59.70;;;;;;5101284;28;20448;-52
2022/01/04 02:45:17;;;;;;;1.70;1.30;;;15.60;59.70;;;;;;5090542;28;20425;-49
2022/01/04 02:47:43;;;;;;;1.87;1.50;;;15.70;59.50;;;;;;5088464;28;20485;-49
2022/01/04 02:50:09;;;;;;;1.40;1.30;;;15.70;59.40;;;;;;5096873;28;20255;-49
2022/01/04 02:52:35;;;;;;;2.00;1.63;;;15.70;59.30;;;;;;5100365;28;20203;-50
2022/01/04 02:55:06;;;;;;;3.00;1.47;;;15.40;59.70;;;;;;5093734;28;20429;-49
2022/01/04 02:57:34;;;;;;;1.30;1.20;;;15.50;59.90;;;;;;5091745;28;20180;-49
2022/01/04 02:59:59;;;;;;;2.53;1.80;;;15.60;59.50;;;;;;5090797;28;20429;-50
2022/01/04 03:02:26;;;;;;;1.70;1.60;;;15.70;59.20;;;;;;5086696;28;20442;-49
2022/01/04 03:04:52;;;;;;;2.60;2.37;;;15.80;59.00;;;;;;5090581;28;20195;-49
2022/01/04 03:07:17;;;;;;;1.70;1.60;;;15.70;58.90;;;;;;5094998;28;20485;-49
2022/01/04 03:09:43;;;;;;;3.33;1.23;;;15.80;59.10;;;;;;5093096;28;20433;-50
2022/01/04 03:12:09;;;;;;;1.50;1.40;;;15.80;59.00;;;;;;5090770;28;20241;-49
2022/01/04 03:14:36;;;;;;;2.20;1.30;;;15.50;59.10;;;;;;5085556;28;20199;-49
2022/01/04 03:17:02;;;;;;;2.20;1.60;;;15.50;59.50;;;;;;5088022;28;20440;-49
2022/01/04 03:19:28;;;;;;;3.23;1.70;;;15.40;59.50;;;;;;5092840;28;20480;-50
2022/01/04 03:21:54;;;;;;;1.97;1.63;;;15.40;59.60;;;;;;5086055;28;20434;-49
2022/01/04 03:24:19;;;;;;;2.73;1.50;;;15.50;59.30;;;;;;5083228;28;20241;-49
2022/01/04 03:26:45;;;;;;;2.73;1.53;;;15.10;59.70;;;;;;5096527;27;20227;-50
2022/01/04 03:29:13;;;;;;;1.80;1.70;;;15.20;60.00;;;;;;5091667;28;20203;-49
2022/01/04 03:31:39;;;;;;;1.40;1.30;;;15.30;59.90;;;;;;5084430;28;20434;-49
2022/01/04 03:34:05;;;;;;;1.63;1.17;;;15.40;60.00;;;;;;5080654;28;20441;-48
2022/01/04 03:36:31;;;;;;;1.50;1.40;;;15.40;59.90;;;;;;5088441;28;20520;-49
2022/01/04 03:38:58;;;;;;;1.77;1.67;;;15.30;59.90;;;;;;5088714;28;20493;-48
2022/01/04 03:41:25;;;;;;;1.30;1.10;;;15.10;60.10;;;;;;5080769;28;20483;-49
2022/01/04 03:43:52;;;;;;;2.47;1.63;;;15.00;60.60;;;;;;5086614;28;20934;-50
2022/01/04 03:46:18;;;;;;;3.37;1.53;;;15.20;60.70;;;;;;5088409;28;20477;-50
2022/01/04 03:48:45;;;;;;;2.13;1.60;;;15.40;60.20;;;;;;5092403;28;20425;-51
2022/01/04 03:51:11;;;;;;;2.20;1.40;;;15.10;60.00;;;;;;5086406;28;20434;-51
2022/01/04 03:53:37;;;;;;;1.53;1.30;;;15.10;60.80;;;;;;5092392;28;20436;-53
2022/01/04 03:56:04;;;;;;;2.33;1.73;;;15.10;60.90;;;;;;5088273;28;20464;-51
2022/01/04 03:58:29;;;;;;;1.63;1.53;;;15.20;60.60;;;;;;5080344;28;20435;-50
2022/01/04 04:00:55;;;;;;;1.37;1.10;;;15.20;60.90;;;;;;5093537;28;20776;-53
2022/01/04 04:03:21;;;;;;;2.93;1.53;;;15.40;60.70;;;;;;5093422;28;20199;-53
2022/01/04 04:05:47;;;;;;;2.00;1.30;;;15.50;60.20;;;;;;5084767;28;20553;-53
2022/01/04 04:08:12;;;;;;;1.50;1.40;;;15.60;59.80;;;;;;5085596;28;20203;-49
2022/01/04 04:10:38;;;;;;;1.53;1.43;;;15.50;59.70;;;;;;5078938;28;20689;-49
2022/01/04 04:13:04;;;;;;;2.30;1.57;;;15.50;60.20;;;;;;5079571;28;20610;-50
2022/01/04 04:15:30;;;;;;;3.73;1.67;;;15.50;60.40;;;;;;5083198;28;20215;-52
2022/01/04 04:17:55;;;;;;;1.50;1.40;;;15.60;59.80;;;;;;5080711;28;20192;-50
2022/01/04 04:20:21;;;;;;;1.77;1.50;;;15.60;59.70;;;;;;5080144;28;20291;-50
2022/01/04 04:22:47;;;;;;;1.37;1.27;;;15.30;60.20;;;;;;5081335;28;20188;-52
2022/01/04 04:25:13;;;;;;;1.20;1.10;;;15.20;60.50;;;;;;5086733;28;20195;-51
2022/01/04 04:27:39;;;;;;;1.57;1.30;;;15.20;60.70;;;;;;5080275;28;20486;-51
2022/01/04 04:30:06;;;;;;;1.40;1.30;;;15.20;61.40;;;;;;5090920;28;20434;-49
2022/01/04 04:32:31;;;;;;;5.07;1.40;;;15.10;61.30;;;;;;5085611;28;20814;-52
2022/01/04 04:34:57;;;;;;;1.27;1.17;;;15.20;62.30;;;;;;5089086;28;20495;-49
2022/01/04 04:37:23;;;;;;;1.90;1.37;;;15.40;60.90;;;;;;5089522;28;20199;-51
2022/01/04 04:39:49;;;;;;;1.50;1.17;;;15.30;61.30;;;;;;5081515;28;20194;-49
2022/01/04 04:42:15;;;;;;;1.33;1.23;;;15.40;61.20;;;;;;5089111;28;20433;-50
2022/01/04 04:44:41;;;;;;;1.30;1.20;;;15.40;61.30;;;;;;5076603;28;20436;-52
2022/01/04 04:47:07;;;;;;;3.00;1.33;;;15.30;61.70;;;;;;5085104;28;20532;-53
2022/01/04 04:49:32;;;;;;;2.03;1.57;;;15.40;61.70;;;;;;5087780;28;20291;-49
2022/01/04 04:51:59;;;;;;;3.27;1.57;;;15.40;62.30;;;;;;5080468;28;20187;-51
2022/01/04 04:54:26;;;;;;;1.30;1.20;;;15.40;62.20;;;;;;5088440;28;20203;-53
2022/01/04 04:56:52;;;;;;;3.27;1.27;;;15.30;62.40;;;;;;5079498;28;20430;-49
2022/01/04 04:59:17;;;;;;;2.20;1.30;;;15.00;63.00;;;;;;5091551;28;20443;-52
2022/01/04 05:01:43;;;;;;;1.60;1.00;;;15.00;63.90;;;;;;5092073;28;20689;-52
2022/01/04 05:04:08;;;;;;;1.30;0.90;;;15.00;64.20;;;;;;5084662;28;20191;-49
2022/01/04 05:06:34;;;;;;;1.23;1.13;;;14.80;64.50;;;;;;5093457;28;20275;-49
2022/01/04 05:08:59;;;;;;;1.43;1.33;;;15.00;64.70;;;;;;5095455;28;20244;-49
2022/01/04 05:11:26;;;;;;;1.27;1.07;;;15.10;64.30;;;;;;5091565;28;20194;-51
2022/01/04 05:13:52;;;;;;;1.23;1.13;;;15.10;63.90;;;;;;5100643;28;20195;-51
2022/01/04 05:16:18;;;;;;;1.23;1.07;;;15.10;64.50;;;;;;5095160;28;20656;-50
2022/01/04 05:18:43;;;;;;;1.10;1.00;;;14.80;64.70;;;;;;5093051;28;20195;-49
2022/01/04 05:21:09;;;;;;;1.40;1.30;;;14.70;65.40;;;;;;5083508;28;20248;-51
2022/01/04 05:23:34;;;;;;;1.30;1.20;;;14.80;65.60;;;;;;5090454;28;20932;-50
2022/01/04 05:26:00;;;;;;;1.40;1.30;;;14.70;66.30;;;;;;5098463;28;20304;-49
2022/01/04 05:28:26;;;;;;;1.83;1.63;;;14.50;67.50;;;;;;5091211;28;20191;-49
2022/01/04 05:30:51;;;;;;;1.30;1.20;;;14.50;67.40;;;;;;5091286;28;20191;-53
2022/01/04 05:33:17;;;;;;;1.90;1.50;;;14.50;67.60;;;;;;5093873;28;20799;-52
2022/01/04 05:35:43;;;;;;;2.70;1.43;;;14.60;67.60;;;;;;5091567;28;20270;-50
2022/01/04 05:38:09;;;;;;;1.97;1.47;;;14.70;67.90;;;;;;5100308;28;20202;-54
2022/01/04 05:40:34;;;;;;;2.30;1.23;;;14.60;67.80;;;;;;5084314;28;20187;-53
2022/01/04 05:43:00;;;;;;;1.80;1.07;;;14.60;68.20;;;;;;5090159;28;20274;-53
2022/01/04 05:45:26;;;;;;;1.73;1.40;;;14.50;68.00;;;;;;5084130;28;20192;-50
2022/01/04 05:47:52;;;;;;;1.80;1.43;;;14.70;68.30;;;;;;5085765;28;20488;-54
2022/01/04 05:50:17;;;;;;;1.27;1.17;;;14.90;68.10;;;;;;5085729;28;20437;-52
2022/01/04 05:52:43;;;;;;;1.87;1.40;;;15.10;67.70;;;;;;5096855;28;20208;-53
2022/01/04 05:55:09;;;;;;;2.00;1.30;;;15.10;67.30;;;;;;5085682;28;20545;-53
2022/01/04 05:57:35;;;;;;;4.80;1.50;;;15.30;66.80;;;;;;5088888;28;20198;-53
2022/01/04 06:00:01;;;;;;;2.83;2.60;;;15.40;66.70;;;;;;5087452;28;20425;-54
2022/01/04 06:02:27;;;;;;;1.30;1.00;;;15.40;66.60;;;;;;5091277;28;20226;-53
2022/01/04 06:04:53;;;;;;;1.10;1.00;;;15.50;66.30;;;;;;5093163;28;20476;-54
2022/01/04 06:07:18;;;;;;;1.43;1.33;;;15.50;66.10;;;;;;5088116;28;20267;-53
2022/01/04 06:09:47;;;;;;;1.40;1.30;;;15.30;66.30;;;;;;5092648;28;20221;-53
2022/01/04 06:14:56;;;;;;;1.33;1.13;;;15.40;66.60;;;;;;5094611;28;20489;-54
2022/01/04 06:17:47;;;;;;;2.30;1.50;;;15.50;66.50;;;;;;5090357;28;20502;-52
2022/01/04 06:20:15;;;;;;;2.50;1.67;;;15.60;66.60;;;;;;5088047;28;21118;-50
2022/01/04 06:22:42;;;;;;;1.50;1.37;;;15.50;66.50;;;;;;5083017;28;20917;-51
2022/01/04 06:25:10;;;;;;;4.77;1.57;;;15.50;66.40;;;;;;5094302;28;20444;-52
2022/01/04 06:27:36;;;;;;;3.90;1.50;;;15.60;66.40;;;;;;5092982;28;20533;-51
2022/01/04 06:30:03;;;;;;;1.80;1.27;;;15.20;67.20;;;;;;5093010;28;20425;-52
2022/01/04 06:32:29;;;;;;;2.00;1.20;;;15.30;67.50;;;;;;5088378;28;20277;-50
2022/01/04 06:34:55;;;;;;;2.10;1.50;;;15.30;67.40;;;;;;5092175;28;20516;-52
2022/01/04 06:37:20;;;;;;;1.63;1.50;;;15.50;67.10;;;;;;5088275;28;20203;-50
2022/01/04 06:39:46;;;;;;;1.80;1.57;;;15.60;66.80;;;;;;5089051;28;20191;-50
2022/01/04 06:42:12;;;;;;;4.67;1.30;;;15.60;66.50;;;;;;5092119;28;20218;-53
2022/01/04 06:44:41;;;;;;;1.33;1.13;;;15.50;66.40;;;;;;5093179;28;20195;-53
2022/01/04 06:47:07;;;;;;;1.93;1.50;;;15.40;67.00;;;;;;5078786;28;20969;-50
2022/01/04 06:49:32;;;;;;;1.87;1.50;;;15.50;66.90;;;;;;5088793;28;20437;-52
2022/01/04 06:51:58;;;;;;;5.80;1.60;;;15.60;66.90;;;;;;5083737;28;20529;-53
2022/01/04 06:54:24;;;;;;;1.43;1.03;;;15.50;66.90;;;;;;5089477;28;20217;-51
2022/01/04 06:56:49;;;;;;;2.07;1.50;;;15.60;66.90;;;;;;5089671;28;20221;-50
2022/01/04 06:59:16;;;;;;;3.33;1.40;;;15.80;66.50;;;;;;5085427;28;20193;-54
2022/01/04 07:01:42;;;;;;;1.50;1.40;;;15.80;66.20;;;;;;5086395;28;20260;-52
2022/01/04 07:04:08;;;;;;;1.33;0.83;;;15.80;66.40;;;;;;5088721;28;20426;-53
2022/01/04 07:06:34;;;;;;;3.70;1.20;;;15.70;66.70;;;;;;5091889;28;20504;-52
2022/01/04 07:09:00;;;;;;;1.60;1.23;;;15.60;67.00;;;;;;5091662;28;20698;-51
2022/01/04 07:11:26;;;;;;;1.57;1.47;;;15.60;67.10;;;;;;5091814;28;20576;-52
2022/01/04 07:13:52;;;;;;;1.30;1.20;;;15.80;66.60;;;;;;5090580;28;20433;-49
2022/01/04 07:16:18;;;;;;;1.40;1.30;;;15.70;66.80;;;;;;5091149;28;20516;-53
2022/01/04 07:18:48;;;;;;;1.40;1.30;;;15.80;67.00;;;;;;5090726;28;20289;-53
2022/01/04 07:21:16;;;;;;;1.20;1.17;;;15.90;66.80;;;;;;5090230;28;20425;-53
2022/01/04 07:23:43;;;;;;;3.13;1.27;;;15.90;66.60;;;;;;5090655;28;20528;-53
2022/01/04 07:26:14;;;;;;;2.80;1.20;;;15.90;66.40;;;;;;5079770;28;20543;-51
2022/01/04 07:28:43;;;;;;;1.40;1.27;;;15.90;66.90;;;;;;5094541;28;20465;-52
2022/01/04 07:31:09;;;;;;;1.23;1.20;;;15.80;67.00;;;;;;5087206;28;20426;-52
2022/01/04 07:33:35;;;;;;;2.20;1.10;;;15.70;66.90;;;;;;5088928;28;20440;-52
2022/01/04 07:36:02;;;;;;;2.80;1.30;;;15.70;67.50;;;;;;5086904;28;20429;-53
2022/01/04 07:38:28;;;;;;;1.20;1.10;;;15.80;67.30;;;;;;5080247;28;20434;-54
2022/01/04 07:40:54;;;;;;;1.80;1.37;;;15.90;67.00;;;;;;5088597;28;20540;-50
2022/01/04 07:43:19;;;;;;;1.07;1.00;;;15.90;67.00;;;;;;5089179;28;20195;-53
2022/01/04 07:45:45;;;;;;;2.33;1.50;;;15.70;67.50;;;;;;5085297;28;20218;-52
2022/01/04 07:48:10;;;;;;;3.47;1.20;;;15.60;68.00;;;;;;5092557;28;20637;-53
2022/01/04 07:50:42;;;;;;;1.73;1.20;;;15.50;68.40;;;;;;5083280;28;20192;-53
2022/01/04 07:53:08;;;;;;;1.47;1.27;;;15.30;69.40;;;;;;5089919;28;20270;-50
2022/01/04 07:55:34;;;;;;;2.43;1.70;;;15.50;69.10;;;;;;5087262;28;20457;-50
2022/01/04 07:58:00;;;;;;;2.30;1.20;;;15.50;69.00;;;;;;5088760;28;20433;-49
2022/01/04 08:00:26;;;;;;;1.40;1.30;;;15.60;68.60;;;;;;5080020;28;20480;-50
2022/01/04 08:02:53;;;;;;;0.93;0.83;;;15.60;68.70;;;;;;5091211;28;20252;-50
2022/01/04 08:05:18;;;;;;;2.13;1.13;;;15.60;68.70;;;;;;5088728;28;20191;-49
2022/01/04 08:07:44;;;;;;;0.93;0.70;;;15.60;68.90;;;;;;5091790;28;20477;-50
2022/01/04 08:10:11;;;;;;;3.33;1.20;;;15.60;68.70;;;;;;5091973;28;20550;-52
2022/01/04 08:12:37;;;;;;;1.40;1.03;;;15.70;68.60;;;;;;5090719;28;20190;-50
2022/01/04 08:15:04;;;;;;;1.00;0.90;;;15.70;68.70;;;;;;5091377;28;20421;-53
2022/01/04 08:17:31;;;;;;;1.93;1.30;;;15.80;68.60;;;;;;5090632;28;20437;-49
2022/01/04 08:19:58;;;;;;;1.13;1.00;;;15.90;69.20;;;;;;5091440;28;20469;-53
2022/01/04 08:22:23;;;;;;;2.70;1.17;;;15.80;68.60;;;;;;5090593;28;20428;-49
2022/01/04 08:24:49;;;;;;;0.90;0.90;;;15.90;68.30;;;;;;5091178;28;20437;-53
2022/01/04 08:27:15;;;;;;;1.70;1.40;;;15.80;68.50;;;;;;5090566;28;20708;-52
2022/01/04 08:29:41;;;;;;;1.37;1.10;;;15.90;68.50;;;;;;5104088;28;20549;-52
2022/01/04 08:32:07;;;;;;;0.97;0.97;;;16.00;68.20;;;;;;5089194;28;20410;-51
2022/01/04 08:34:32;;;;;;;2.03;1.20;;;16.10;67.90;;;;;;5090489;28;20187;-53
2022/01/04 08:36:58;;;;;;;2.27;1.33;;;16.20;67.90;;;;;;5090606;28;20540;-53
2022/01/04 08:39:26;;;;;;;1.17;0.97;;;16.20;67.70;;;;;;5091120;28;20187;-52
2022/01/04 08:41:55;;;;;;;1.63;1.53;;;16.30;67.90;;;;;;5090442;28;20238;-51
2022/01/04 08:44:22;;;;;;;1.30;1.00;;;16.30;67.40;;;;;;5090623;28;20828;-53
2022/01/04 08:46:48;;;;;;;0.83;0.83;;;16.10;67.40;;;;;;5090274;28;20485;-50
2022/01/04 08:49:14;;;;;;;2.20;1.10;;;15.90;69.00;;;;;;5091169;28;20437;-54
2022/01/04 08:51:40;;;;;;;2.03;1.40;;;16.00;68.90;;;;;;5090510;28;20784;-50
2022/01/04 08:54:06;;;;;;;1.77;1.30;;;16.10;68.30;;;;;;5090063;28;20198;-49
2022/01/04 08:56:32;;;;;;;1.57;1.10;;;16.00;68.70;;;;;;5090594;28;20241;-49
2022/01/04 08:58:58;;;;;;;1.33;1.23;;;15.80;68.80;;;;;;5089448;28;20948;-51
2022/01/04 09:01:24;;;;;;;1.20;1.20;;;15.80;68.70;;;;;;5090001;28;20494;-49
2022/01/04 09:03:50;;;;;;;1.93;1.20;;;15.60;69.10;;;;;;5090205;28;20422;-48
2022/01/04 09:06:16;;;;;;;0.80;0.70;;;15.60;69.40;;;;;;5089063;28;20215;-52
2022/01/04 09:08:42;;;;;;;2.37;1.27;;;15.70;69.10;;;;;;5090517;28;20240;-48
2022/01/04 09:11:11;;;;;;;0.97;0.90;;;15.60;68.40;;;;;;5090109;28;20426;-49
2022/01/04 09:13:41;;;;;;;3.13;1.13;;;15.70;68.40;;;;;;5090469;28;20478;-49
2022/01/04 09:18:48;;;;;;;1.50;1.40;;;15.90;67.40;;;;;;5090310;28;20434;-49
2022/01/04 09:21:17;;;;;;;1.60;1.50;;;15.80;67.60;;;;;;5090310;28;20519;-49
2022/01/04 09:23:45;;;;;;;1.90;1.03;;;15.70;67.20;;;;;;5090321;28;21083;-51
2022/01/04 09:26:12;;;;;;;1.20;0.90;;;15.70;67.60;;;;;;5088482;28;20526;-50
2022/01/04 09:28:38;;;;;;;1.43;1.10;;;15.80;67.20;;;;;;5085792;28;20887;-49
2022/01/04 09:31:05;;;;;;;1.20;1.10;;;15.70;66.60;;;;;;5089759;28;20457;-50
2022/01/04 09:33:31;;;;;;;5.03;1.13;;;15.70;67.20;;;;;;5090281;28;20447;-49
2022/01/04 09:35:57;;;;;;;2.67;1.20;;;15.80;67.40;;;;;;5090033;28;20433;-49
2022/01/04 09:38:23;;;;;;;1.47;1.10;;;15.90;66.80;;;;;;5090472;28;20448;-50
2022/01/04 09:40:49;;;;;;;0.90;0.90;;;15.80;66.70;;;;;;5089773;28;20924;-48
2022/01/04 09:43:15;;;;;;;1.87;1.20;;;15.90;67.20;;;;;;5090264;28;20248;-50
2022/01/04 09:45:41;;;;;;;0.90;0.90;;;15.80;67.60;;;;;;5093417;28;20214;-50
2022/01/04 09:48:07;;;;;;;2.10;1.27;;;15.70;67.70;;;;;;5094437;28;20524;-48
2022/01/04 09:50:35;;;;;;;2.40;1.30;;;15.70;68.40;;;;;;5092422;28;21056;-52
2022/01/04 09:53:01;;;;;;;1.43;1.30;;;15.50;68.90;;;;;;5085919;28;20643;-49
2022/01/04 09:55:27;;;;;;;6.00;1.37;;;15.40;69.70;;;;;;5088319;28;20436;-49
2022/01/04 09:57:53;;;;;;;1.40;1.30;;;15.40;69.90;;;;;;5083814;28;20476;-50
2022/01/04 10:00:19;;;;;;;1.33;0.90;;;15.30;70.10;;;;;;5084483;28;20194;-50
2022/01/04 10:02:47;;;;;;;4.33;1.33;;;15.30;70.20;;;;;;5087571;28;20196;-49
2022/01/04 10:05:23;;;;;;;2.33;1.40;;;15.40;70.90;;;;;;5086841;28;20941;-53
2022/01/04 10:07:59;;;;;;;1.13;1.13;;;15.70;70.40;;;;;;5083502;28;20495;-50
2022/01/04 10:10:24;;;;;;;1.60;1.50;;;15.80;69.80;;;;;;5087684;28;20478;-52
2022/01/04 10:12:55;;;;;;;1.20;1.10;;;15.80;69.40;;;;;;5090323;28;20428;-49
2022/01/04 10:15:35;;;;;;;2.53;1.43;;;15.70;70.00;;;;;;5090942;28;20188;-49
2022/01/04 10:18:23;;;;;;;1.30;1.20;;;16.00;69.70;;;;;;5091969;28;20441;-51
2022/01/04 10:21:04;;;;;;;1.30;1.13;;;15.90;68.60;;;;;;5076032;28;20962;-48
2022/01/04 10:23:30;;;;;;;1.53;1.43;;;15.60;69.30;;;;;;5093455;28;20933;-48
2022/01/04 10:26:04;;;;;;;1.77;1.00;;;15.70;69.80;;;;;;5085675;28;20441;-48
2022/01/04 10:28:43;;;;;;;1.80;1.70;;;15.50;69.00;;;;;;5088319;28;20431;-49
2022/01/04 10:31:18;;;;;;;1.73;1.63;;;15.50;70.30;;;;;;5082537;28;20457;-49
2022/01/04 10:33:44;;;;;;;1.50;1.13;;;15.60;69.60;;;;;;5090359;28;20856;-49
2022/01/04 10:36:11;;;;;;;1.13;1.03;;;15.60;69.00;;;;;;5083928;28;20515;-48
2022/01/04 10:38:40;;;;;;;4.87;1.47;;;15.60;68.30;;;;;;5087383;28;20517;-48
2022/01/04 10:41:11;;;;;;;1.60;1.43;;;15.50;68.40;;;;;;5083480;28;20937;-52
2022/01/04 10:44:01;;;;;;;1.30;1.20;;;15.50;68.60;;;;;;5083619;28;20468;-48
2022/01/04 10:46:41;;;;;;;0.97;0.90;;;15.40;67.70;;;;;;5089401;28;20496;-48
2022/01/04 10:49:18;;;;;;;1.20;1.10;;;15.40;68.00;;;;;;5087856;28;20502;-49
2022/01/04 10:51:45;;;;;;;2.73;1.40;;;15.40;67.40;;;;;;5085638;28;20864;-48
2022/01/04 10:54:18;;;;;;;2.47;1.43;;;15.40;66.90;;;;;;5084972;28;20525;-48
2022/01/04 10:56:44;;;;;;;2.23;1.30;;;15.50;66.80;;;;;;5087895;28;20461;-48
2022/01/04 10:59:11;;;;;;;1.97;1.50;;;15.80;66.40;;;;;;5089313;28;20461;-48
2022/01/04 11:01:42;;;;;;;4.90;1.60;;;16.00;65.60;;;;;;5087014;28;20194;-48
2022/01/04 11:04:14;;;;;;;1.93;1.50;;;16.00;65.80;;;;;;5090384;28;20445;-48
2022/01/04 11:06:41;;;;;;;2.17;1.30;;;16.00;65.90;;;;;;5093041;28;20477;-48
2022/01/04 11:09:08;;;;;;;1.50;1.00;;;15.90;65.80;;;;;;5094311;28;20438;-49
2022/01/04 11:11:34;;;;;;;3.23;1.27;;;15.80;65.90;;;;;;5083357;28;20432;-48
2022/01/04 11:14:00;;;;;;;3.13;1.40;;;15.80;65.80;;;;;;5086401;28;20434;-48
2022/01/04 11:16:28;;;;;;;1.47;1.17;;;15.80;65.30;;;;;;5085603;28;20490;-48
2022/01/04 11:18:56;;;;;;;1.50;1.40;;;15.90;65.40;;;;;;5090675;28;20556;-52
2022/01/04 11:21:25;;;;;;;1.50;1.40;;;15.90;65.00;;;;;;5087860;28;20853;-50
2022/01/04 11:23:52;;;;;;;1.47;1.37;;;16.00;64.80;;;;;;5099597;28;20436;-52
2022/01/04 11:26:19;;;;;;;1.50;1.40;;;16.10;64.70;;;;;;5083460;28;20553;-51
2022/01/04 11:28:48;;;;;;;1.80;1.20;;;16.00;64.90;;;;;;5085134;28;20459;-52
2022/01/04 11:31:13;;;;;;;5.60;1.70;;;15.80;64.30;;;;;;5085736;28;20466;-53
2022/01/04 11:34:03;;;;;;;2.00;1.30;;;15.90;65.60;;;;;;5095988;28;20487;-51
2022/01/04 11:36:33;;;;;;;1.90;1.53;;;15.80;65.90;;;;;;5084130;28;20194;-52
2022/01/04 11:38:58;;;;;;;3.03;1.70;;;15.60;65.40;;;;;;5090381;28;20804;-51
2022/01/04 11:41:44;;;;;;;1.80;1.47;;;15.50;67.10;;;;;;5088244;28;20421;-50
2022/01/04 11:44:18;;;;;;;1.67;1.57;;;15.50;67.20;;;;;;5099536;28;20315;-52
2022/01/04 11:46:44;;;;;;;1.50;1.40;;;15.60;67.60;;;;;;5080286;28;20835;-52
2022/01/04 11:49:12;;;;;;;2.47;1.13;;;15.40;67.70;;;;;;5083444;28;20520;-50
2022/01/04 11:51:43;;;;;;;1.60;1.43;;;15.60;68.00;;;;;;5089716;28;20227;-49
2022/01/04 11:54:22;;;;;;;4.00;1.90;;;15.60;67.40;;;;;;5089391;28;20448;-49
2022/01/04 11:56:54;;;;;;;1.77;1.50;;;15.70;67.60;;;;;;5079890;28;22515;-51
2022/01/04 11:59:22;;;;;;;2.50;1.60;;;15.70;67.20;;;;;;5083451;28;20521;-49
2022/01/04 12:01:49;;;;;;;1.97;1.87;;;15.40;67.80;;;;;;5086062;28;20437;-49
2022/01/04 12:04:46;;;;;;;1.90;1.80;;;15.50;68.70;;;;;;5087788;28;20480;-49
2022/01/04 12:07:38;;;;;;;3.50;1.60;;;15.60;69.20;;;;;;5080244;28;20488;-51
2022/01/04 12:10:21;;;;;;;2.93;2.73;;;15.50;67.90;;;;;;5079259;28;21093;-48
2022/01/04 12:13:04;;;;;;;1.60;1.50;;;15.60;68.80;;;;;;5087065;28;20512;-48
2022/01/04 12:15:32;;;;;;;2.27;1.60;;;15.60;68.30;;;;;;5085512;28;20520;-50
2022/01/04 12:18:27;;;;;;;4.23;2.03;;;15.60;68.50;;;;;;5078845;28;20441;-48
2022/01/04 12:20:56;;;;;;;3.10;1.93;;;15.80;68.50;;;;;;5043334;28;20590;-50
2022/01/04 12:23:31;;;;;;;3.80;2.20;;;15.60;69.20;;;;;;5036351;28;20908;-48
2022/01/04 12:26:05;;;;;;;4.33;1.90;;;15.60;69.80;;;;;;5048821;28;20462;-48
2022/01/04 12:28:54;;;;;;;2.70;2.43;;;15.60;70.20;;;;;;5051398;28;20437;-49
2022/01/04 12:31:20;;;;;;;2.13;1.80;;;15.90;69.60;;;;;;5055822;28;20441;-51
2022/01/04 12:33:48;;;;;;;2.50;1.80;;;15.70;69.00;;;;;;5034846;28;20436;-49
2022/01/04 12:36:34;;;;;;;2.83;1.77;;;15.50;69.80;;;;;;5052449;28;20230;-51
2022/01/04 12:39:01;;;;;;;1.67;1.57;;;15.50;70.40;;;;;;5047732;28;20427;-50
2022/01/04 12:41:27;;;;;;;2.10;1.90;;;15.70;70.40;;;;;;5047637;28;20423;-49
2022/01/04 12:43:53;;;;;;;2.43;2.20;;;15.70;70.00;;;;;;5041227;28;20458;-49
2022/01/04 12:46:30;;;;;;;4.10;2.60;;;15.50;69.10;;;;;;5045799;28;20954;-50
2022/01/04 12:49:04;;;;;;;2.10;2.00;;;15.50;69.10;;;;;;5049561;28;20449;-48
2022/01/04 12:51:38;;;;;;;2.47;1.60;;;15.30;68.80;;;;;;5047868;28;20438;-48
2022/01/04 12:54:12;;;;;;;1.70;1.60;;;15.30;69.10;;;;;;5050299;28;20461;-48
2022/01/04 12:56:53;;;;;;;2.77;2.10;;;15.40;69.20;;;;;;5048772;28;20450;-51
2022/01/04 12:59:33;;;;;;;1.97;1.87;;;15.60;69.40;;;;;;5049365;28;20450;-52